createdAt,value
2022-10-08T00:00:24.157Z,19.88
2022-10-08T00:02:56.680Z,15.48
2022-10-08T00:05:29.300Z,16.58
2022-10-08T00:08:02.479Z,12.57
2022-10-08T00:10:35.224Z,14.93
2022-10-08T00:13:07.784Z,12.43
2022-10-08T00:15:41.670Z,11.82
2022-10-08T00:18:14.471Z,13.82
2022-10-08T00:20:47.641Z,11.80
2022-10-08T00:23:20.191Z,15.02
2022-10-08T00:25:52.732Z,10.05
2022-10-08T00:28:25.320Z,10.88
2022-10-08T00:30:58.322Z,11.25
2022-10-08T00:33:30.954Z,11.73
2022-10-08T00:36:06.204Z,13.38
2022-10-08T00:38:39.305Z,11.45
2022-10-08T00:41:20.990Z,14.27
2022-10-08T00:43:56.770Z,11.50
2022-10-08T00:46:37.542Z,12.70
2022-10-08T00:49:12.035Z,11.63
2022-10-08T00:51:50.232Z,11.30
2022-10-08T00:54:24.128Z,12.98
2022-10-08T00:56:56.652Z,10.38
2022-10-08T00:59:29.794Z,11.57
2022-10-08T01:02:02.409Z,11.32
2022-10-08T01:04:36.594Z,10.07
2022-10-08T01:07:15.294Z,10.48
2022-10-08T01:10:04.414Z,12.95
2022-10-08T01:12:53.659Z,12.27
2022-10-08T01:15:40.556Z,10.13
2022-10-08T01:18:20.975Z,12.75
2022-10-08T01:21:10.326Z,12.77
2022-10-08T01:24:14.351Z,11.20
2022-10-08T01:27:09.650Z,8.95
2022-10-08T01:29:46.338Z,11.10
2022-10-08T01:32:24.451Z,11.57
2022-10-08T01:35:04.175Z,9.98
2022-10-08T01:37:43.499Z,12.63
2022-10-08T01:40:20.444Z,10.57
2022-10-08T01:42:54.260Z,10.70
2022-10-08T01:45:32.628Z,11.95
2022-10-08T01:48:12.712Z,10.05
2022-10-08T01:50:54.582Z,11.23
2022-10-08T01:53:33.806Z,10.13
2022-10-08T01:56:10.755Z,11.52
2022-10-08T01:58:54.701Z,12.05
2022-10-08T02:01:58.678Z,13.48
2022-10-08T02:04:33.718Z,10.73
2022-10-08T02:07:07.777Z,12.65
2022-10-08T02:09:44.796Z,12.13
2022-10-08T02:12:18.105Z,10.35
2022-10-08T02:14:54.366Z,9.38
2022-10-08T02:17:42.719Z,12.13
2022-10-08T02:20:33.551Z,10.27
2022-10-08T02:23:09.836Z,9.52
2022-10-08T02:25:58.057Z,13.05
2022-10-08T02:28:53.433Z,8.52
2022-10-08T02:31:27.732Z,12.73
2022-10-08T02:34:12.404Z,8.70
2022-10-08T02:36:52.019Z,9.55
2022-10-08T02:39:28.385Z,10.88
2022-10-08T02:42:05.430Z,11.27
2022-10-08T02:44:46.520Z,10.02
2022-10-08T02:47:22.493Z,9.43
2022-10-08T02:49:59.365Z,10.68
2022-10-08T02:52:39.071Z,10.32
2022-10-08T02:55:30.380Z,8.68
2022-10-08T02:58:08.090Z,9.07
2022-10-08T03:00:50.613Z,9.68
2022-10-08T03:03:30.520Z,9.57
2022-10-08T03:06:08.148Z,8.10
2022-10-08T03:08:46.622Z,8.70
2022-10-08T03:11:19.282Z,9.55
2022-10-08T03:13:58.729Z,10.25
2022-10-08T03:16:38.875Z,9.07
2022-10-08T03:19:15.964Z,12.13
2022-10-08T03:21:53.649Z,8.05
2022-10-08T03:24:26.218Z,10.50
2022-10-08T03:26:58.943Z,8.02
2022-10-08T03:29:31.479Z,10.07
2022-10-08T03:32:04.046Z,9.65
2022-10-08T03:34:36.614Z,8.32
2022-10-08T03:37:09.116Z,10.10
2022-10-08T03:39:43.535Z,11.85
2022-10-08T03:42:16.009Z,7.80
2022-10-08T03:44:48.659Z,8.35
2022-10-08T03:47:21.219Z,8.70
2022-10-08T03:49:54.022Z,9.10
2022-10-08T03:52:26.580Z,9.90
2022-10-08T03:54:59.992Z,8.48
2022-10-08T03:57:32.505Z,7.53
2022-10-08T04:00:05.727Z,9.65
2022-10-08T04:02:38.787Z,8.43
2022-10-08T04:05:11.432Z,8.18
2022-10-08T04:07:43.950Z,8.80
2022-10-08T04:10:16.749Z,10.48
2022-10-08T04:12:49.447Z,9.88
2022-10-08T04:15:22.289Z,12.20
2022-10-08T04:17:54.794Z,12.98
2022-10-08T04:20:27.347Z,9.45
2022-10-08T04:22:59.946Z,7.78
2022-10-08T04:25:32.513Z,8.40
2022-10-08T04:28:05.691Z,8.70
2022-10-08T04:30:38.216Z,7.80
2022-10-08T04:33:10.664Z,9.52
2022-10-08T04:35:43.180Z,8.57
2022-10-08T04:38:15.821Z,9.80
2022-10-08T04:40:48.853Z,9.60
2022-10-08T04:43:22.932Z,9.73
2022-10-08T04:45:56.767Z,7.47
2022-10-08T04:48:29.861Z,8.88
2022-10-08T04:51:09.418Z,7.60
2022-10-08T04:53:43.054Z,8.02
2022-10-08T04:56:19.908Z,7.90
2022-10-08T04:58:52.726Z,8.27
2022-10-08T05:01:26.211Z,7.50
2022-10-08T05:03:59.489Z,7.13
2022-10-08T05:06:32.470Z,7.50
2022-10-08T05:09:05.102Z,7.40
2022-10-08T05:11:37.715Z,8.32
2022-10-08T05:14:10.494Z,8.15
2022-10-08T05:16:43.113Z,9.63
2022-10-08T05:19:15.548Z,9.02
2022-10-08T05:21:48.140Z,7.70
2022-10-08T05:24:20.680Z,9.63
2022-10-08T05:26:58.588Z,10.40
2022-10-08T05:29:31.678Z,8.27
2022-10-08T05:32:04.281Z,7.55
2022-10-08T05:34:36.772Z,9.20
2022-10-08T05:37:09.330Z,9.15
2022-10-08T05:39:41.890Z,10.27
2022-10-08T05:42:14.413Z,8.20
2022-10-08T05:44:46.886Z,10.30
2022-10-08T05:47:19.414Z,9.82
2022-10-08T05:49:51.995Z,12.23
2022-10-08T05:52:27.436Z,7.68
2022-10-08T05:57:33.412Z,9.38
2022-10-08T06:00:06.725Z,10.23
2022-10-08T06:02:44.650Z,10.48
2022-10-08T06:05:17.450Z,9.70
2022-10-08T06:07:50.087Z,7.82
2022-10-08T06:10:22.696Z,11.48
2022-10-08T06:12:55.258Z,7.75
2022-10-08T06:15:27.735Z,10.75
2022-10-08T06:18:02.222Z,9.57
2022-10-08T06:20:37.831Z,10.30
2022-10-08T06:23:10.393Z,11.93
2022-10-08T06:25:42.991Z,11.05
2022-10-08T06:28:16.575Z,9.00
2022-10-08T06:30:48.960Z,10.35
2022-10-08T06:33:21.465Z,9.38
2022-10-08T06:35:54.037Z,8.35
2022-10-08T06:38:26.529Z,10.75
2022-10-08T06:40:59.588Z,11.63
2022-10-08T06:43:32.243Z,10.82
2022-10-08T06:46:06.125Z,8.35
2022-10-08T06:48:39.820Z,10.05
2022-10-08T06:51:14.744Z,9.00
2022-10-08T06:53:54.422Z,9.27
2022-10-08T06:56:26.963Z,11.35
2022-10-08T06:58:59.406Z,11.77
2022-10-08T07:01:34.015Z,11.25
2022-10-08T07:04:07.295Z,7.80
2022-10-08T07:06:39.866Z,8.18
2022-10-08T07:09:13.781Z,8.70
2022-10-08T07:11:46.333Z,7.45
2022-10-08T07:14:18.937Z,9.05
2022-10-08T07:16:51.542Z,9.25
2022-10-08T07:19:24.698Z,8.52
2022-10-08T07:22:01.144Z,9.32
2022-10-08T07:24:34.422Z,9.18
2022-10-08T07:27:07.067Z,8.00
2022-10-08T07:29:39.943Z,7.30
2022-10-08T07:32:12.492Z,8.82
2022-10-08T07:34:44.965Z,7.70
2022-10-08T07:37:17.685Z,7.57
2022-10-08T07:39:50.202Z,8.50
2022-10-08T07:42:23.419Z,7.25
2022-10-08T07:44:55.986Z,6.03
2022-10-08T07:47:28.767Z,8.55
2022-10-08T07:50:01.352Z,7.40
2022-10-08T07:52:34.029Z,5.82
2022-10-08T07:55:06.917Z,8.68
2022-10-08T07:57:39.448Z,8.15
2022-10-08T08:00:12.840Z,8.77
2022-10-08T08:02:48.750Z,6.68
2022-10-08T08:05:21.706Z,8.82
2022-10-08T08:07:54.162Z,6.47
2022-10-08T08:10:26.781Z,7.60
2022-10-08T08:12:59.251Z,9.27
2022-10-08T08:15:31.787Z,6.90
2022-10-08T08:18:04.431Z,8.60
2022-10-08T08:20:37.337Z,5.97
2022-10-08T08:23:09.925Z,9.20
2022-10-08T08:25:45.410Z,7.72
2022-10-08T08:30:50.630Z,7.60
2022-10-08T08:33:23.279Z,8.75
2022-10-08T08:35:55.990Z,12.38
2022-10-08T08:38:28.431Z,9.60
2022-10-08T08:41:28.595Z,10.00
2022-10-08T08:44:08.310Z,12.48
2022-10-08T08:46:46.965Z,14.77
2022-10-08T08:49:28.552Z,10.35
2022-10-08T08:52:03.898Z,12.50
2022-10-08T08:57:27.825Z,12.40
2022-10-08T09:00:13.817Z,9.38
2022-10-08T09:03:04.503Z,11.00
2022-10-08T09:05:42.779Z,15.27
2022-10-08T09:08:40.744Z,8.18
2022-10-08T09:11:16.431Z,10.82
2022-10-08T09:13:58.962Z,12.10
2022-10-08T09:16:33.066Z,12.15
2022-10-08T09:19:05.879Z,10.82
2022-10-08T09:21:38.329Z,9.13
2022-10-08T09:24:12.588Z,12.15
2022-10-08T09:26:45.108Z,8.80
2022-10-08T09:29:32.992Z,9.05
2022-10-08T09:32:05.551Z,10.77
2022-10-08T09:34:38.106Z,10.35
2022-10-08T09:37:21.387Z,10.98
2022-10-08T09:40:12.535Z,15.40
2022-10-08T09:42:45.976Z,14.90
2022-10-08T09:45:39.058Z,17.15
2022-10-08T09:48:18.409Z,15.50
2022-10-08T09:51:00.463Z,15.43
2022-10-08T09:53:40.741Z,15.85
2022-10-08T09:56:15.379Z,18.52
2022-10-08T09:58:55.103Z,21.33
2022-10-08T10:01:28.071Z,16.80
2022-10-08T10:04:02.479Z,18.77
2022-10-08T10:06:38.750Z,16.23
2022-10-08T10:09:11.958Z,24.42
2022-10-08T10:11:49.717Z,18.15
2022-10-08T10:14:29.558Z,20.23
2022-10-08T10:17:09.608Z,27.45
2022-10-08T10:19:52.529Z,24.05
2022-10-08T10:22:48.207Z,25.58
2022-10-08T10:25:44.853Z,29.15
2022-10-08T10:28:19.107Z,31.00
2022-10-08T10:30:56.139Z,33.95
2022-10-08T10:33:33.092Z,35.28
2022-10-08T10:36:11.587Z,35.83
2022-10-08T10:39:14.711Z,39.30
2022-10-08T10:41:52.717Z,37.15
2022-10-08T10:44:49.500Z,42.22
2022-10-08T10:47:29.581Z,45.63
2022-10-08T10:50:12.793Z,39.63
2022-10-08T10:53:09.256Z,41.90
2022-10-08T10:55:50.255Z,40.55
2022-10-08T10:58:41.974Z,42.22
2022-10-08T11:01:38.861Z,45.97
2022-10-08T11:04:18.585Z,42.22
2022-10-08T11:07:07.084Z,42.20
2022-10-08T11:09:44.401Z,39.08
2022-10-08T11:12:40.395Z,43.10
2022-10-08T11:15:28.010Z,36.60
2022-10-08T11:18:28.721Z,35.78
2022-10-08T11:21:32.964Z,34.47
2022-10-08T11:24:14.413Z,38.15
2022-10-08T11:26:50.640Z,35.83
2022-10-08T11:29:41.135Z,39.28
2022-10-08T11:32:17.173Z,39.55
2022-10-08T11:35:00.110Z,38.80
2022-10-08T11:37:37.350Z,46.28
2022-10-08T11:40:32.668Z,40.58
2022-10-08T11:43:24.903Z,38.37
2022-10-08T11:46:29.118Z,43.35
2022-10-08T11:49:17.735Z,35.58
2022-10-08T11:51:53.054Z,36.58
2022-10-08T11:58:05.741Z,29.40
2022-10-08T12:00:45.311Z,27.13
2022-10-08T12:03:27.629Z,26.27
2022-10-08T12:06:17.804Z,32.47
2022-10-08T12:08:59.135Z,30.75
2022-10-08T12:11:35.747Z,35.15
2022-10-08T12:14:12.927Z,29.33
2022-10-08T12:16:49.842Z,29.00
2022-10-08T12:19:38.845Z,28.70
2022-10-08T12:22:25.389Z,30.08
2022-10-08T12:24:59.113Z,31.67
2022-10-08T12:27:34.594Z,31.60
2022-10-08T12:30:11.148Z,31.55
2022-10-08T12:32:44.247Z,35.15
2022-10-08T12:35:38.188Z,34.78
2022-10-08T12:38:36.374Z,27.63
2022-10-08T12:41:37.495Z,27.95
2022-10-08T12:44:25.442Z,27.88
2022-10-08T12:47:13.603Z,24.88
2022-10-08T12:49:57.150Z,22.85
2022-10-08T12:52:35.635Z,23.15
2022-10-08T12:55:16.797Z,21.20
2022-10-08T12:57:52.681Z,20.33
2022-10-08T13:00:34.504Z,21.35
2022-10-08T13:03:15.225Z,22.13
2022-10-08T13:05:49.375Z,19.95
2022-10-08T13:08:38.905Z,20.10
2022-10-08T13:11:15.833Z,22.58
2022-10-08T13:13:50.793Z,25.52
2022-10-08T13:16:24.981Z,28.75
2022-10-08T13:18:59.058Z,22.23
2022-10-08T13:21:32.227Z,23.05
2022-10-08T13:24:26.502Z,19.42
2022-10-08T13:26:59.255Z,20.60
2022-10-08T13:29:35.205Z,21.83
2022-10-08T13:32:16.258Z,22.38
2022-10-08T13:34:52.335Z,20.42
2022-10-08T13:37:32.751Z,22.52
2022-10-08T13:40:18.623Z,19.25
2022-10-08T13:45:31.932Z,24.00
2022-10-08T13:48:05.907Z,22.83
2022-10-08T13:50:44.188Z,19.25
2022-10-08T13:53:20.840Z,21.90
2022-10-08T13:55:53.427Z,21.83
2022-10-08T13:58:25.819Z,23.15
2022-10-08T14:00:58.411Z,21.13
2022-10-08T14:03:30.910Z,22.40
2022-10-08T14:06:03.537Z,22.08
2022-10-08T14:08:37.453Z,23.25
2022-10-08T14:11:11.154Z,21.13
2022-10-08T14:13:43.735Z,22.83
2022-10-08T14:16:16.597Z,28.27
2022-10-08T14:18:49.286Z,22.98
2022-10-08T14:21:22.272Z,28.35
2022-10-08T14:23:54.785Z,25.10
2022-10-08T14:26:27.959Z,22.35
2022-10-08T14:29:01.076Z,21.67
2022-10-08T14:31:34.047Z,22.38
2022-10-08T14:34:07.468Z,21.63
2022-10-08T14:36:42.338Z,22.23
2022-10-08T14:39:14.927Z,22.13
2022-10-08T14:41:47.685Z,22.67
2022-10-08T14:44:22.846Z,21.85
2022-10-08T14:46:55.395Z,25.30
2022-10-08T14:49:28.255Z,26.45
2022-10-08T14:52:01.601Z,27.13
2022-10-08T14:54:34.288Z,21.40
2022-10-08T14:57:07.259Z,22.92
2022-10-08T14:59:41.599Z,30.15
2022-10-08T15:02:15.981Z,27.83
2022-10-08T15:04:48.445Z,26.13
2022-10-08T15:07:21.968Z,19.75
2022-10-08T15:09:54.633Z,17.33
2022-10-08T15:12:27.227Z,19.30
2022-10-08T15:14:59.970Z,19.08
2022-10-08T15:17:33.120Z,19.73
2022-10-08T15:20:06.485Z,22.15
2022-10-08T15:22:39.198Z,19.10
2022-10-08T15:25:11.613Z,18.42
2022-10-08T15:27:44.461Z,19.40
2022-10-08T15:30:17.280Z,19.58
2022-10-08T15:32:50.276Z,16.25
2022-10-08T15:35:23.479Z,21.92
2022-10-08T15:37:56.364Z,17.40
2022-10-08T15:40:31.707Z,17.52
2022-10-08T15:43:04.489Z,16.85
2022-10-08T15:45:44.788Z,18.65
2022-10-08T15:48:17.333Z,23.20
2022-10-08T15:50:59.376Z,17.38
2022-10-08T15:53:35.149Z,17.15
2022-10-08T15:56:08.040Z,19.83
2022-10-08T15:58:56.277Z,23.45
2022-10-08T16:01:29.950Z,22.20
2022-10-08T16:04:02.879Z,23.50
2022-10-08T16:06:36.503Z,23.08
2022-10-08T16:09:10.578Z,20.25
2022-10-08T16:11:43.914Z,22.38
2022-10-08T16:14:21.032Z,28.42
2022-10-08T16:16:54.566Z,23.15
2022-10-08T16:19:28.077Z,20.10
2022-10-08T16:22:01.783Z,23.02
2022-10-08T16:24:34.603Z,19.55
2022-10-08T16:27:07.359Z,18.70
2022-10-08T16:29:40.165Z,16.98
2022-10-08T16:32:13.476Z,16.38
2022-10-08T16:34:53.566Z,12.27
2022-10-08T16:37:26.864Z,14.80
2022-10-08T16:40:04.257Z,14.80
2022-10-08T16:42:36.768Z,12.82
2022-10-08T16:45:10.078Z,14.27
2022-10-08T16:47:42.935Z,13.43
2022-10-08T16:50:15.718Z,15.82
2022-10-08T16:52:48.499Z,13.35
2022-10-08T16:55:21.155Z,13.85
2022-10-08T16:57:55.873Z,13.68
2022-10-08T17:00:28.414Z,15.35
2022-10-08T17:03:02.059Z,16.50
2022-10-08T17:05:34.602Z,18.50
2022-10-08T17:08:07.080Z,12.45
2022-10-08T17:10:39.850Z,15.70
2022-10-08T17:13:12.704Z,15.18
2022-10-08T17:15:45.439Z,15.60
2022-10-08T17:18:18.300Z,14.18
2022-10-08T17:20:50.981Z,15.07
2022-10-08T17:23:25.017Z,17.33
2022-10-08T17:25:59.198Z,14.40
2022-10-08T17:28:34.483Z,17.17
2022-10-08T17:31:10.391Z,16.40
2022-10-08T17:33:43.810Z,17.08
2022-10-08T17:36:19.883Z,16.88
2022-10-08T17:38:54.423Z,16.42
2022-10-08T17:41:31.440Z,16.30
2022-10-08T17:44:07.188Z,15.93
2022-10-08T17:46:44.023Z,18.65
2022-10-08T17:49:18.937Z,21.38
2022-10-08T17:51:51.549Z,17.60
2022-10-08T17:54:24.141Z,20.15
2022-10-08T17:56:59.548Z,20.95
2022-10-08T17:59:32.401Z,15.55
2022-10-08T18:02:05.200Z,18.42
2022-10-08T18:04:37.783Z,22.23
2022-10-08T18:07:12.610Z,21.38
2022-10-08T18:09:45.175Z,19.58
2022-10-08T18:12:17.928Z,21.05
2022-10-08T18:14:50.519Z,21.25
2022-10-08T18:17:23.429Z,22.73
2022-10-08T18:19:56.051Z,22.23
2022-10-08T18:22:28.610Z,19.67
2022-10-08T18:25:03.600Z,21.55
2022-10-08T18:27:36.310Z,22.00
2022-10-08T18:30:10.027Z,22.63
2022-10-08T18:32:43.008Z,23.23
2022-10-08T18:35:15.509Z,20.95
2022-10-08T18:37:49.066Z,23.45
2022-10-08T18:40:21.895Z,24.02
2022-10-08T18:42:54.714Z,23.45
2022-10-08T18:45:27.796Z,20.25
2022-10-08T18:48:00.897Z,22.58
2022-10-08T18:50:33.798Z,27.25
2022-10-08T18:53:06.507Z,23.85
2022-10-08T18:55:39.232Z,21.83
2022-10-08T18:58:12.399Z,26.33
2022-10-08T19:00:46.633Z,24.73
2022-10-08T19:03:19.480Z,25.73
2022-10-08T19:05:53.038Z,25.35
2022-10-08T19:08:27.057Z,22.20
2022-10-08T19:11:09.488Z,26.08
2022-10-08T19:13:42.688Z,23.77
2022-10-08T19:16:16.758Z,29.60
2022-10-08T19:18:56.304Z,28.45
2022-10-08T19:21:32.554Z,28.48
2022-10-08T19:24:11.113Z,25.75
2022-10-08T19:26:44.666Z,27.45
2022-10-08T19:29:20.910Z,29.38
2022-10-08T19:31:53.797Z,24.10
2022-10-08T19:34:27.822Z,27.40
2022-10-08T19:37:00.333Z,26.95
2022-10-08T19:39:34.424Z,28.88
2022-10-08T19:42:07.243Z,28.02
2022-10-08T19:44:39.852Z,25.70
2022-10-08T19:47:12.717Z,21.98
2022-10-08T19:49:45.471Z,27.70
2022-10-08T19:52:18.181Z,30.02
2022-10-08T19:54:51.039Z,25.85
2022-10-08T19:57:25.432Z,28.27
2022-10-08T19:59:58.451Z,26.88
2022-10-08T20:02:31.232Z,26.30
2022-10-08T20:05:04.589Z,26.50
2022-10-08T20:07:39.718Z,26.67
2022-10-08T20:10:16.394Z,22.90
2022-10-08T20:12:49.368Z,25.98
2022-10-08T20:15:23.146Z,23.17
2022-10-08T20:17:55.885Z,25.40
2022-10-08T20:20:33.198Z,26.77
2022-10-08T20:23:07.317Z,28.08
2022-10-08T20:25:40.035Z,27.77
2022-10-08T20:28:12.719Z,25.65
2022-10-08T20:30:45.952Z,26.42
2022-10-08T20:33:19.911Z,24.55
2022-10-08T20:35:52.704Z,23.63
2022-10-08T20:38:25.234Z,27.10
2022-10-08T20:40:58.005Z,29.92
2022-10-08T20:43:32.824Z,25.45
2022-10-08T20:46:09.537Z,29.95
2022-10-08T20:48:44.552Z,23.92
2022-10-08T20:51:20.173Z,26.45
2022-10-08T20:54:00.975Z,24.23
2022-10-08T20:56:39.443Z,28.33
2022-10-08T20:59:16.568Z,23.80
2022-10-08T21:01:50.490Z,26.08
2022-10-08T21:04:23.091Z,22.88
2022-10-08T21:06:55.561Z,25.88
2022-10-08T21:09:28.098Z,25.02
2022-10-08T21:12:00.739Z,26.55
2022-10-08T21:14:33.307Z,30.92
2022-10-08T21:17:05.857Z,25.48
2022-10-08T21:19:38.447Z,27.23
2022-10-08T21:22:11.014Z,25.20
2022-10-08T21:24:44.555Z,26.00
2022-10-08T21:27:17.279Z,26.60
2022-10-08T21:29:51.087Z,26.70
2022-10-08T21:32:23.749Z,25.15
2022-10-08T21:34:56.342Z,28.00
2022-10-08T21:37:28.971Z,24.60
2022-10-08T21:40:01.473Z,25.98
2022-10-08T21:42:34.141Z,28.55
2022-10-08T21:45:07.145Z,25.50
2022-10-08T21:47:39.981Z,28.70
2022-10-08T21:50:12.425Z,29.17
2022-10-08T21:52:45.040Z,27.05
2022-10-08T21:55:17.618Z,23.55
2022-10-08T21:57:50.796Z,30.10
2022-10-08T22:00:31.663Z,24.42
2022-10-08T22:03:04.437Z,25.77
2022-10-08T22:05:36.978Z,27.67
2022-10-08T22:08:09.592Z,22.42
2022-10-08T22:10:42.327Z,26.63
2022-10-08T22:13:15.468Z,27.13
2022-10-08T22:15:53.917Z,24.58
2022-10-08T22:18:30.305Z,28.95
2022-10-08T22:21:07.701Z,26.35
2022-10-08T22:23:40.374Z,25.70
2022-10-08T22:26:17.818Z,25.90
2022-10-08T22:28:50.722Z,23.38
2022-10-08T22:31:23.484Z,26.15
2022-10-08T22:33:56.104Z,24.13
2022-10-08T22:36:31.595Z,24.63
2022-10-08T22:39:04.321Z,22.50
2022-10-08T22:41:36.965Z,19.15
2022-10-08T22:44:09.598Z,23.27
2022-10-08T22:46:42.061Z,22.00
2022-10-08T22:49:14.896Z,22.83
2022-10-08T22:51:47.469Z,24.40
2022-10-08T22:54:20.249Z,23.48
2022-10-08T22:56:53.118Z,27.02
2022-10-08T22:59:25.833Z,27.55
2022-10-08T23:01:58.469Z,26.30
2022-10-08T23:04:31.084Z,26.15
2022-10-08T23:07:03.748Z,25.63
2022-10-08T23:09:36.259Z,31.00
2022-10-08T23:12:08.710Z,29.42
2022-10-08T23:14:41.232Z,26.50
2022-10-08T23:17:13.704Z,30.15
2022-10-08T23:19:46.200Z,24.52
2022-10-08T23:22:18.602Z,27.75
2022-10-08T23:24:51.325Z,26.77
2022-10-08T23:27:24.000Z,24.83
2022-10-08T23:29:57.303Z,26.63
2022-10-08T23:32:29.937Z,25.77
2022-10-08T23:35:02.458Z,24.08
2022-10-08T23:37:34.932Z,28.77
2022-10-08T23:40:07.985Z,22.33
2022-10-08T23:42:40.365Z,24.35
2022-10-08T23:45:12.847Z,22.38
2022-10-08T23:47:45.258Z,25.40
2022-10-08T23:50:17.858Z,25.58
2022-10-08T23:52:50.638Z,23.63
2022-10-08T23:55:23.675Z,22.83
2022-10-08T23:57:56.018Z,27.80
